createdAt,value
2019-01-20T00:00:21.321Z,128.77
2019-01-20T00:02:50.039Z,121.13
2019-01-20T00:05:18.699Z,115.67
2019-01-20T00:07:46.978Z,114.50
2019-01-20T00:10:15.782Z,114.00
2019-01-20T01:32:38.063Z,82.13
2019-01-20T01:35:07.311Z,78.27
2019-01-20T01:37:35.604Z,80.23
2019-01-20T01:40:06.288Z,76.83
2019-01-20T01:42:34.654Z,73.57
2019-01-20T01:45:03.364Z,78.17
2019-01-20T01:47:31.655Z,77.73
2019-01-20T01:49:59.989Z,96.65
2019-01-20T01:52:28.330Z,78.67
2019-01-20T01:54:56.614Z,73.53
2019-01-20T01:57:24.923Z,76.27
2019-01-20T01:59:53.278Z,74.00
2019-01-20T02:02:21.583Z,71.00
2019-01-20T02:04:49.867Z,71.40
2019-01-20T02:07:18.148Z,75.03
2019-01-20T02:09:46.440Z,73.67
2019-01-20T02:12:14.738Z,77.17
2019-01-20T02:14:43.123Z,77.87
2019-01-20T02:17:11.413Z,71.87
2019-01-20T02:19:39.771Z,71.70
2019-01-20T02:22:08.092Z,70.17
2019-01-20T02:24:42.275Z,74.50
2019-01-20T02:27:10.560Z,72.53
2019-01-20T02:29:38.849Z,77.30
2019-01-20T02:32:07.131Z,79.30
2019-01-20T02:34:35.421Z,77.40
2019-01-20T02:37:04.602Z,75.30
2019-01-20T02:39:32.937Z,74.03
2019-01-20T02:42:01.312Z,69.27
2019-01-20T02:44:29.667Z,65.63
2019-01-20T02:46:58.046Z,66.93
2019-01-20T02:49:45.842Z,71.33
2019-01-20T02:52:14.448Z,77.83
2019-01-20T02:54:42.739Z,77.20
2019-01-20T02:57:11.019Z,78.33
2019-01-20T02:59:39.381Z,77.20
2019-01-20T03:02:07.669Z,75.63
2019-01-20T03:04:36.024Z,70.77
2019-01-20T03:07:04.302Z,68.37
2019-01-20T03:09:32.591Z,67.97
2019-01-20T03:12:03.550Z,65.80
2019-01-20T03:14:30.919Z,69.63
2019-01-20T03:16:59.197Z,66.27
2019-01-20T03:19:27.964Z,66.17
2019-01-20T03:21:56.368Z,67.50
2019-01-20T03:24:24.737Z,63.57
2019-01-20T03:26:53.088Z,63.53
2019-01-20T03:29:21.407Z,61.87
2019-01-20T03:31:49.696Z,67.13
2019-01-20T03:34:18.180Z,63.30
2019-01-20T03:36:46.515Z,59.40
2019-01-20T03:39:14.877Z,58.60
2019-01-20T03:41:43.225Z,61.37
2019-01-20T03:44:11.515Z,60.57
2019-01-20T03:46:39.811Z,60.97
2019-01-20T03:49:08.210Z,59.23
2019-01-20T03:51:36.574Z,58.67
2019-01-20T03:54:05.094Z,58.57
2019-01-20T03:56:34.272Z,57.57
2019-01-20T03:59:02.558Z,58.63
2019-01-20T04:01:30.920Z,57.90
2019-01-20T04:03:59.278Z,58.33
2019-01-20T04:06:27.589Z,57.87
2019-01-20T04:08:55.918Z,54.53
2019-01-20T04:11:24.304Z,57.23
2019-01-20T04:13:52.654Z,54.43
2019-01-20T04:16:20.944Z,55.53
2019-01-20T04:18:49.340Z,53.03
2019-01-20T04:21:17.613Z,57.80
2019-01-20T04:23:45.902Z,55.07
2019-01-20T04:26:14.307Z,57.10
2019-01-20T04:28:42.595Z,53.37
2019-01-20T04:31:10.887Z,58.50
2019-01-20T04:33:39.181Z,53.17
2019-01-20T04:36:07.630Z,52.67
2019-01-20T04:38:35.951Z,53.13
2019-01-20T04:41:04.311Z,54.20
2019-01-20T04:43:32.602Z,56.53
2019-01-20T04:46:01.036Z,54.90
2019-01-20T04:48:29.311Z,55.33
2019-01-20T04:50:57.622Z,57.57
2019-01-20T04:53:26.991Z,58.23
2019-01-20T04:55:55.472Z,57.57
2019-01-20T04:58:24.132Z,56.40
2019-01-20T05:00:52.509Z,53.87
2019-01-20T05:03:20.854Z,56.20
2019-01-20T05:05:49.525Z,54.60
2019-01-20T05:08:17.986Z,53.30
2019-01-20T05:10:46.261Z,55.23
2019-01-20T05:13:14.548Z,57.53
2019-01-20T05:15:42.871Z,54.57
2019-01-20T05:18:11.150Z,53.57
2019-01-20T05:20:39.444Z,56.83
2019-01-20T05:23:07.918Z,55.37
2019-01-20T05:25:36.212Z,58.00
2019-01-20T05:28:04.533Z,53.50
2019-01-20T05:30:32.830Z,53.97
2019-01-20T05:33:01.188Z,54.00
2019-01-20T05:35:29.475Z,56.13
2019-01-20T05:37:57.806Z,56.63
2019-01-20T05:40:26.147Z,55.13
2019-01-20T05:42:54.507Z,58.67
2019-01-20T05:45:24.430Z,56.40
2019-01-20T05:47:52.736Z,62.07
2019-01-20T05:50:21.086Z,60.87
2019-01-20T05:52:49.385Z,61.23
2019-01-20T05:55:17.829Z,59.43
2019-01-20T05:57:46.208Z,58.70
2019-01-20T06:00:23.054Z,59.70
2019-01-20T06:02:51.416Z,58.57
2019-01-20T06:05:19.779Z,58.83
2019-01-20T06:08:07.487Z,59.47
2019-01-20T06:10:35.774Z,59.20
2019-01-20T06:13:04.168Z,59.50
2019-01-20T06:15:32.456Z,58.40
2019-01-20T06:18:00.832Z,64.70
2019-01-20T06:20:29.459Z,63.80
2019-01-20T06:22:57.750Z,62.03
2019-01-20T06:25:26.093Z,63.20
2019-01-20T06:27:54.400Z,62.30
2019-01-20T06:30:29.061Z,64.40
2019-01-20T06:32:57.437Z,62.23
2019-01-20T06:35:25.805Z,60.73
2019-01-20T06:37:54.123Z,61.07
2019-01-20T06:40:22.467Z,61.70
2019-01-20T06:42:50.829Z,64.00
2019-01-20T06:45:19.195Z,55.43
2019-01-20T06:47:47.555Z,52.77
2019-01-20T06:50:18.304Z,52.63
2019-01-20T06:52:46.908Z,52.80
2019-01-20T06:55:16.099Z,53.27
2019-01-20T06:57:44.464Z,55.27
2019-01-20T07:00:21.312Z,53.87
2019-01-20T07:03:09.011Z,53.30
2019-01-20T07:05:37.304Z,55.33
2019-01-20T07:08:05.603Z,59.67
2019-01-20T07:10:33.976Z,57.37
2019-01-20T07:13:08.861Z,58.07
2019-01-20T07:15:32.359Z,50.20
2019-01-20T07:18:00.679Z,55.17
2019-01-20T07:20:29.056Z,59.13
2019-01-20T07:22:57.330Z,58.83
2019-01-20T07:25:25.610Z,62.00
2019-01-20T07:27:53.899Z,58.47
2019-01-20T07:30:22.801Z,59.63
2019-01-20T07:32:51.093Z,84.30
2019-01-20T07:35:19.457Z,287.03
2019-01-20T07:37:47.842Z,467.47
2019-01-20T07:40:19.426Z,313.73
2019-01-20T07:42:47.788Z,153.67
2019-01-20T07:45:17.603Z,126.43
2019-01-20T07:47:45.965Z,92.10
2019-01-20T07:50:16.803Z,87.73
2019-01-20T07:52:45.318Z,78.03
2019-01-20T07:55:13.681Z,61.63
2019-01-20T07:57:42.045Z,63.63
2019-01-20T08:00:21.753Z,64.27
2019-01-20T08:02:50.924Z,60.70
2019-01-20T08:05:19.619Z,61.27
2019-01-20T08:07:47.906Z,55.90
2019-01-20T08:10:18.956Z,62.53
2019-01-20T08:12:47.243Z,74.20
2019-01-20T08:15:16.276Z,74.57
2019-01-20T08:17:44.755Z,66.70
2019-01-20T08:20:19.109Z,63.17
2019-01-20T08:22:47.477Z,62.60
2019-01-20T08:25:17.490Z,68.53
2019-01-20T08:27:45.807Z,70.40
2019-01-20T08:30:17.119Z,70.50
2019-01-20T08:32:45.534Z,73.57
2019-01-20T08:35:14.668Z,71.03
2019-01-20T08:37:43.220Z,71.70
2019-01-20T08:40:20.861Z,70.73
2019-01-20T08:42:49.139Z,66.47
2019-01-20T08:45:20.702Z,59.93
2019-01-20T08:47:51.391Z,55.17
2019-01-20T08:50:19.747Z,59.33
2019-01-20T08:52:48.033Z,57.77
2019-01-20T08:55:16.326Z,63.37
2019-01-20T08:57:44.706Z,60.23
2019-01-20T09:00:15.434Z,62.97
2019-01-20T09:02:43.830Z,63.17
2019-01-20T09:05:12.767Z,61.00
2019-01-20T09:07:41.190Z,57.50
2019-01-20T09:10:12.835Z,59.10
2019-01-20T09:12:41.691Z,62.00
2019-01-20T09:15:09.986Z,60.60
2019-01-20T09:17:38.339Z,60.67
2019-01-20T09:20:29.690Z,60.67
2019-01-20T09:22:58.051Z,61.37
2019-01-20T09:25:26.346Z,63.70
2019-01-20T09:27:54.631Z,67.07
2019-01-20T09:30:24.227Z,66.00
2019-01-20T09:32:52.511Z,66.13
2019-01-20T09:35:20.837Z,69.80
2019-01-20T09:37:49.125Z,72.90
2019-01-20T09:40:19.040Z,86.73
2019-01-20T09:42:47.375Z,73.57
2019-01-20T09:45:31.921Z,65.37
2019-01-20T09:48:00.231Z,70.80
2019-01-20T09:50:28.578Z,64.90
2019-01-20T09:52:56.883Z,64.47
2019-01-20T09:55:25.250Z,60.33
2019-01-20T09:57:53.640Z,51.70
2019-01-20T10:00:25.012Z,53.80
2019-01-20T10:02:53.320Z,54.17
2019-01-20T10:05:21.613Z,49.50
2019-01-20T10:07:50.431Z,44.37
2019-01-20T10:10:19.464Z,49.97
2019-01-20T10:12:47.747Z,51.33
2019-01-20T10:15:17.739Z,51.47
2019-01-20T10:17:46.038Z,51.47
2019-01-20T10:20:23.460Z,51.77
2019-01-20T10:22:51.755Z,54.77
2019-01-20T10:25:20.147Z,57.07
2019-01-20T10:27:48.509Z,54.43
2019-01-20T10:30:25.717Z,50.13
2019-01-20T10:32:54.080Z,54.23
2019-01-20T10:35:27.092Z,57.77
2019-01-20T10:37:57.090Z,58.57
2019-01-20T10:40:25.387Z,57.17
2019-01-20T10:42:53.710Z,53.37
2019-01-20T10:45:22.006Z,52.03
2019-01-20T10:47:50.304Z,52.33
2019-01-20T10:50:19.323Z,52.53
2019-01-20T10:52:47.724Z,51.93
2019-01-20T10:55:15.997Z,55.13
2019-01-20T10:57:44.285Z,51.90
2019-01-20T11:00:16.406Z,52.17
2019-01-20T11:02:44.700Z,53.43
2019-01-20T11:05:12.990Z,51.13
2019-01-20T11:07:42.771Z,73.60
2019-01-20T11:10:11.676Z,65.33
2019-01-20T11:12:40.966Z,53.10
2019-01-20T11:15:12.077Z,46.07
2019-01-20T11:17:40.448Z,50.00
2019-01-20T11:20:11.618Z,49.53
2019-01-20T11:22:39.939Z,43.80
2019-01-20T11:25:13.828Z,43.40
2019-01-20T11:27:42.738Z,43.63
2019-01-20T11:30:12.845Z,51.17
2019-01-20T11:32:42.392Z,45.33
2019-01-20T11:35:14.188Z,38.63
2019-01-20T11:37:42.509Z,43.07
2019-01-20T11:40:12.572Z,48.73
2019-01-20T11:42:40.933Z,49.50
2019-01-20T11:45:27.064Z,51.57
2019-01-20T11:47:55.356Z,50.37
2019-01-20T11:50:23.647Z,46.60
2019-01-20T11:52:52.091Z,48.43
2019-01-20T11:55:22.396Z,45.10
2019-01-20T11:57:50.755Z,44.60
2019-01-20T12:00:21.588Z,42.70
2019-01-20T12:02:49.975Z,37.73
2019-01-20T12:05:19.019Z,47.20
2019-01-20T12:07:47.453Z,50.80
2019-01-20T12:10:16.011Z,46.20
2019-01-20T12:12:52.243Z,46.93
2019-01-20T12:15:20.553Z,39.33
2019-01-20T12:17:48.831Z,44.13
2019-01-20T12:20:17.175Z,45.97
2019-01-20T12:22:45.502Z,47.83
2019-01-20T12:25:18.260Z,48.63
2019-01-20T12:27:46.560Z,49.63
2019-01-20T12:30:21.286Z,57.33
2019-01-20T12:32:49.673Z,38.70
2019-01-20T12:35:18.063Z,39.23
2019-01-20T12:37:46.424Z,38.53
2019-01-20T12:40:18.041Z,42.10
2019-01-20T12:42:46.398Z,43.17
2019-01-20T12:45:14.680Z,43.87
2019-01-20T12:50:38.236Z,41.17
2019-01-20T12:53:06.602Z,40.17
2019-01-20T12:55:35.427Z,41.03
2019-01-20T12:58:03.731Z,39.67
2019-01-20T13:00:32.097Z,38.97
2019-01-20T13:03:00.574Z,42.80
2019-01-20T13:05:28.892Z,39.50
2019-01-20T13:07:57.167Z,42.97
2019-01-20T13:10:25.592Z,37.97
2019-01-20T13:12:53.981Z,39.10
2019-01-20T13:15:23.724Z,36.50
2019-01-20T13:17:52.109Z,32.47
2019-01-20T13:20:22.371Z,35.60
2019-01-20T13:22:50.724Z,39.73
2019-01-20T13:25:21.561Z,42.40
2019-01-20T13:27:49.925Z,41.43
2019-01-20T13:30:20.966Z,43.13
2019-01-20T13:32:49.252Z,39.63
2019-01-20T13:35:19.007Z,41.10
2019-01-20T13:37:50.196Z,42.93
2019-01-20T13:40:36.430Z,31.90
2019-01-20T13:43:04.788Z,27.00
2019-01-20T13:45:33.085Z,30.37
2019-01-20T13:48:01.417Z,31.43
2019-01-20T13:50:29.768Z,35.43
2019-01-20T13:52:58.127Z,34.10
2019-01-20T13:55:26.505Z,37.07
2019-01-20T13:57:54.847Z,35.90
2019-01-20T14:00:24.377Z,37.80
2019-01-20T14:02:52.649Z,37.20
2019-01-20T14:05:20.958Z,37.70
2019-01-20T14:07:49.316Z,36.87
2019-01-20T14:10:24.608Z,46.13
2019-01-20T14:12:52.889Z,40.07
2019-01-20T14:15:21.216Z,36.27
2019-01-20T14:17:51.149Z,30.60
2019-01-20T14:20:22.194Z,33.90
2019-01-20T14:22:50.484Z,43.60
2019-01-20T14:25:21.378Z,50.07
2019-01-20T14:27:49.693Z,31.20
2019-01-20T14:30:23.033Z,34.50
2019-01-20T14:32:51.341Z,31.17
2019-01-20T14:35:19.712Z,33.13
2019-01-20T14:37:48.062Z,29.07
2019-01-20T14:40:19.036Z,29.87
2019-01-20T14:42:47.342Z,32.83
2019-01-20T14:45:20.042Z,32.90
2019-01-20T14:47:48.704Z,30.93
2019-01-20T14:50:23.252Z,37.63
2019-01-20T14:52:51.562Z,36.43
2019-01-20T14:55:19.964Z,33.03
2019-01-20T14:57:48.326Z,29.27
2019-01-20T15:00:28.742Z,29.83
2019-01-20T15:02:57.147Z,30.47
2019-01-20T15:05:27.120Z,33.00
2019-01-20T15:07:55.484Z,33.13
2019-01-20T15:10:23.854Z,40.43
2019-01-20T15:12:52.299Z,37.83
2019-01-20T15:15:24.017Z,42.70
2019-01-20T15:17:52.441Z,38.07
2019-01-20T15:20:20.744Z,28.30
2019-01-20T15:22:49.059Z,35.33
2019-01-20T15:25:19.474Z,33.77
2019-01-20T15:27:48.391Z,38.40
2019-01-20T15:30:25.449Z,32.97
2019-01-20T15:32:54.038Z,44.47
2019-01-20T15:35:22.333Z,35.10
2019-01-20T15:37:50.693Z,33.17
2019-01-20T15:40:20.838Z,37.30
2019-01-20T15:42:49.115Z,29.73
2019-01-20T15:45:19.607Z,32.83
2019-01-20T15:47:47.949Z,43.23
2019-01-20T15:50:21.251Z,39.27
2019-01-20T15:52:49.902Z,31.80
2019-01-20T15:55:18.180Z,30.83
2019-01-20T15:57:46.459Z,48.07
2019-01-20T16:00:31.706Z,34.33
2019-01-20T16:03:00.516Z,48.37
2019-01-20T16:05:29.346Z,45.50
2019-01-20T16:07:57.797Z,63.10
2019-01-20T16:10:26.125Z,51.60
2019-01-20T16:12:54.547Z,46.03
2019-01-20T16:15:28.802Z,33.67
2019-01-20T16:17:57.222Z,34.50
2019-01-20T16:20:27.603Z,31.67
2019-01-20T16:22:56.000Z,32.80
2019-01-20T16:25:26.909Z,36.43
2019-01-20T16:27:55.335Z,35.03
2019-01-20T16:30:26.528Z,38.97
2019-01-20T16:32:54.926Z,37.13
2019-01-20T16:35:24.329Z,29.97
2019-01-20T16:37:52.768Z,31.97
2019-01-20T16:40:23.031Z,27.60
2019-01-20T16:42:51.306Z,29.57
2019-01-20T16:45:41.623Z,29.70
2019-01-20T16:48:04.593Z,29.37
2019-01-20T16:50:32.983Z,29.97
2019-01-20T16:53:01.307Z,34.60
2019-01-20T16:55:29.605Z,38.30
2019-01-20T16:57:57.954Z,32.50
2019-01-20T17:00:29.148Z,39.13
2019-01-20T17:02:57.493Z,40.80
2019-01-20T17:05:27.041Z,35.77
2019-01-20T17:07:56.194Z,32.07
2019-01-20T17:10:27.455Z,44.07
2019-01-20T17:12:56.890Z,27.30
2019-01-20T17:15:27.619Z,28.77
2019-01-20T17:17:56.081Z,30.10
2019-01-20T17:20:24.459Z,30.90
2019-01-20T17:22:52.751Z,33.30
2019-01-20T17:25:24.276Z,32.47
2019-01-20T17:27:52.644Z,34.30
2019-01-20T17:30:32.950Z,33.37
2019-01-20T17:33:01.671Z,44.80
2019-01-20T17:35:30.146Z,38.27
2019-01-20T17:37:58.457Z,38.10
2019-01-20T17:40:28.355Z,36.60
2019-01-20T17:42:56.631Z,33.13
2019-01-20T17:45:27.517Z,35.63
2019-01-20T17:47:55.803Z,32.57
2019-01-20T17:50:29.860Z,48.40
2019-01-20T17:52:58.202Z,31.17
2019-01-20T17:55:26.559Z,33.67
2019-01-20T17:57:54.887Z,32.30
2019-01-20T18:00:27.526Z,36.57
2019-01-20T18:02:56.491Z,39.47
2019-01-20T18:05:25.379Z,42.83
2019-01-20T18:07:53.669Z,34.03
2019-01-20T18:10:22.044Z,37.57
2019-01-20T18:12:50.436Z,29.20
2019-01-20T18:15:27.191Z,31.87
2019-01-20T18:17:55.570Z,32.67
2019-01-20T18:20:29.169Z,27.33
2019-01-20T18:22:57.543Z,31.43
2019-01-20T18:25:26.299Z,29.00
2019-01-20T18:27:54.650Z,28.80
2019-01-20T18:30:25.773Z,30.17
2019-01-20T18:32:54.255Z,28.70
2019-01-20T18:35:24.018Z,28.63
2019-01-20T18:37:52.331Z,29.67
2019-01-20T18:40:23.035Z,28.23
2019-01-20T18:42:51.327Z,31.00
2019-01-20T18:45:30.821Z,30.23
2019-01-20T18:47:59.166Z,34.87
2019-01-20T18:50:31.612Z,39.63
2019-01-20T18:52:59.991Z,43.93
2019-01-20T18:55:28.265Z,42.97
2019-01-20T18:57:56.596Z,42.27
2019-01-20T19:00:33.616Z,40.20
2019-01-20T19:03:01.909Z,39.67
2019-01-20T19:05:48.152Z,36.13
2019-01-20T19:08:18.185Z,33.30
2019-01-20T19:10:46.544Z,33.50
2019-01-20T19:13:14.848Z,30.90
2019-01-20T19:15:43.204Z,29.60
2019-01-20T19:18:18.681Z,31.50
2019-01-20T19:20:41.601Z,33.07
2019-01-20T19:23:09.883Z,29.77
2019-01-20T19:25:38.226Z,28.20
2019-01-20T19:28:06.561Z,29.20
2019-01-20T19:30:35.678Z,31.93
2019-01-20T19:33:03.955Z,30.90
2019-01-20T19:35:32.249Z,32.93
2019-01-20T19:38:00.558Z,29.77
2019-01-20T19:40:28.847Z,30.80
2019-01-20T19:42:57.132Z,30.70
2019-01-20T19:45:25.418Z,30.80
2019-01-20T19:47:54.199Z,30.40
2019-01-20T19:50:22.814Z,28.33
2019-01-20T19:52:51.881Z,28.87
2019-01-20T19:55:25.983Z,57.60
2019-01-20T19:57:54.334Z,56.97
2019-01-20T20:00:24.549Z,44.60
2019-01-20T20:02:53.005Z,38.60
2019-01-20T20:05:22.205Z,40.63
2019-01-20T20:07:51.322Z,46.17
2019-01-20T20:10:22.430Z,43.70
2019-01-20T20:12:50.707Z,40.63
2019-01-20T20:15:21.421Z,42.90
2019-01-20T20:17:49.727Z,40.80
2019-01-20T20:20:19.555Z,40.20
2019-01-20T20:22:48.193Z,39.47
2019-01-20T20:25:21.707Z,40.77
2019-01-20T20:27:50.150Z,39.60
2019-01-20T20:30:21.755Z,44.03
2019-01-20T20:32:50.062Z,46.30
2019-01-20T20:35:18.427Z,37.90
2019-01-20T20:37:46.885Z,38.07
2019-01-20T20:40:17.699Z,39.07
2019-01-20T20:42:46.010Z,42.60
2019-01-20T20:45:17.211Z,44.83
2019-01-20T20:47:45.574Z,39.90
2019-01-20T20:50:15.776Z,36.80
2019-01-20T20:52:46.137Z,40.10
2019-01-20T20:55:14.348Z,37.93
2019-01-20T20:57:42.774Z,36.07
2019-01-20T21:00:14.037Z,36.10
2019-01-20T21:02:42.325Z,37.03
2019-01-20T21:05:10.715Z,41.67
2019-01-20T21:07:38.990Z,40.33
2019-01-20T21:10:16.032Z,41.00
2019-01-20T21:12:44.348Z,49.83
2019-01-20T21:15:14.771Z,53.17
2019-01-20T21:17:48.174Z,37.93
2019-01-20T21:20:16.286Z,48.47
2019-01-20T21:22:44.590Z,58.40
2019-01-20T21:25:12.934Z,58.37
2019-01-20T21:27:41.239Z,61.87
2019-01-20T21:30:13.006Z,94.23
2019-01-20T21:32:41.395Z,87.87
2019-01-20T21:35:09.956Z,52.87
2019-01-20T21:37:38.264Z,47.77
2019-01-20T21:40:09.796Z,41.47
2019-01-20T21:42:38.219Z,44.30
2019-01-20T21:45:08.841Z,44.70
2019-01-20T21:47:37.147Z,42.03
2019-01-20T21:50:08.709Z,46.37
2019-01-20T21:52:36.986Z,44.37
2019-01-20T21:55:05.946Z,42.17
2019-01-20T21:57:34.238Z,42.70
2019-01-20T22:00:02.696Z,41.30
2019-01-20T22:02:31.063Z,41.90
2019-01-20T22:04:59.456Z,43.20
2019-01-20T22:07:27.834Z,42.13
2019-01-20T22:09:56.195Z,39.17
2019-01-20T22:12:24.569Z,42.37
2019-01-20T22:14:52.943Z,41.83
2019-01-20T22:17:21.332Z,37.17
2019-01-20T22:19:49.629Z,39.10
2019-01-20T22:22:17.987Z,40.53
2019-01-20T22:24:46.286Z,36.80
2019-01-20T22:27:14.571Z,39.50
2019-01-20T22:29:42.870Z,38.47
2019-01-20T22:32:11.222Z,37.17
2019-01-20T22:34:39.548Z,37.33
2019-01-20T22:37:07.832Z,41.17
2019-01-20T22:39:36.117Z,36.57
2019-01-20T22:42:04.407Z,37.40
2019-01-20T22:44:32.716Z,35.13
2019-01-20T22:47:01.106Z,35.87
2019-01-20T22:49:29.381Z,38.70
2019-01-20T22:51:57.931Z,37.43
2019-01-20T22:54:26.255Z,36.57
2019-01-20T22:56:54.539Z,36.00
2019-01-20T22:59:22.837Z,37.03
2019-01-20T23:01:51.237Z,39.17
2019-01-20T23:04:19.520Z,38.00
2019-01-20T23:06:49.000Z,36.67
2019-01-20T23:09:17.618Z,35.70
2019-01-20T23:11:46.067Z,36.83
2019-01-20T23:14:14.350Z,37.17
2019-01-20T23:16:42.666Z,35.13
2019-01-20T23:19:10.998Z,39.50
2019-01-20T23:21:39.280Z,38.13
2019-01-20T23:24:07.565Z,38.23
2019-01-20T23:26:35.850Z,39.70
2019-01-20T23:29:04.216Z,39.83
2019-01-20T23:31:32.520Z,41.17
2019-01-20T23:34:00.809Z,43.40
2019-01-20T23:36:29.103Z,40.50
2019-01-20T23:38:57.385Z,41.20
2019-01-20T23:41:25.706Z,41.30
2019-01-20T23:43:54.111Z,39.73
2019-01-20T23:46:22.432Z,38.37
2019-01-20T23:48:50.749Z,37.63
2019-01-20T23:51:19.035Z,39.07
2019-01-20T23:53:47.310Z,40.03
2019-01-20T23:56:15.612Z,39.93
2019-01-20T23:58:43.995Z,42.47
